sensor_id;sensor_type;location;lat;lon;timestamp;P1;durP1;ratioP1;P2;durP2;ratioP2
36211;SDS011;22247;48.586;13.492;2023-08-07T18:33:56;3.63;;;0.98;;
36211;SDS011;22247;48.586;13.492;2023-08-07T18:36:24;2.90;;;1.10;;
36211;SDS011;22247;48.586;13.492;2023-08-07T18:41:23;3.97;;;1.00;;
36211;SDS011;22247;48.586;13.492;2023-08-07T18:43:48;2.15;;;0.90;;
36211;SDS011;22247;48.586;13.492;2023-08-07T18:48:42;3.28;;;0.80;;
36211;SDS011;22247;48.586;13.492;2023-08-07T18:51:09;1.77;;;0.80;;
36211;SDS011;22247;48.586;13.492;2023-08-07T18:53:34;2.88;;;0.70;;
36211;SDS011;22247;48.586;13.492;2023-08-07T18:56:05;1.40;;;0.70;;
36211;SDS011;22247;48.586;13.492;2023-08-07T18:58:30;0.95;;;0.65;;
36211;SDS011;22247;48.586;13.492;2023-08-07T19:00:58;2.38;;;1.25;;
36211;SDS011;22247;48.586;13.492;2023-08-07T19:03:25;1.27;;;0.77;;
36211;SDS011;22247;48.586;13.492;2023-08-07T19:05:52;3.05;;;0.82;;
36211;SDS011;22247;48.586;13.492;2023-08-07T19:10:44;2.97;;;1.70;;
36211;SDS011;22247;48.586;13.492;2023-08-07T19:13:11;5.05;;;0.85;;
36211;SDS011;22247;48.586;13.492;2023-08-07T19:18:03;1.70;;;0.90;;
36211;SDS011;22247;48.586;13.492;2023-08-07T19:20:28;1.50;;;0.90;;
36211;SDS011;22247;48.586;13.492;2023-08-07T19:25:17;3.50;;;1.50;;
36211;SDS011;22247;48.586;13.492;2023-08-07T19:27:42;5.28;;;1.38;;
36211;SDS011;22247;48.586;13.492;2023-08-07T19:30:09;5.40;;;2.10;;
36211;SDS011;22247;48.586;13.492;2023-08-07T19:32:33;3.15;;;1.80;;
36211;SDS011;22247;48.586;13.492;2023-08-07T19:35:01;4.93;;;1.88;;
36211;SDS011;22247;48.586;13.492;2023-08-07T19:37:25;5.57;;;1.80;;
36211;SDS011;22247;48.586;13.492;2023-08-07T19:42:14;5.55;;;1.50;;
36211;SDS011;22247;48.586;13.492;2023-08-07T19:44:39;2.10;;;0.88;;
36211;SDS011;22247;48.586;13.492;2023-08-07T19:47:07;2.75;;;0.98;;
36211;SDS011;22247;48.586;13.492;2023-08-07T19:51:56;3.08;;;1.10;;
36211;SDS011;22247;48.586;13.492;2023-08-07T19:56:46;1.98;;;0.90;;
36211;SDS011;22247;48.586;13.492;2023-08-07T19:59:13;4.60;;;1.42;;
36211;SDS011;22247;48.586;13.492;2023-08-07T20:01:37;3.38;;;1.10;;
36211;SDS011;22247;48.586;13.492;2023-08-07T20:06:27;3.97;;;1.45;;
36211;SDS011;22247;48.586;13.492;2023-08-07T20:08:51;6.50;;;1.40;;
36211;SDS011;22247;48.586;13.492;2023-08-07T20:13:40;2.70;;;0.98;;
36211;SDS011;22247;48.586;13.492;2023-08-07T20:16:06;4.00;;;1.52;;
36211;SDS011;22247;48.586;13.492;2023-08-07T20:18:31;5.93;;;1.88;;
36211;SDS011;22247;48.586;13.492;2023-08-07T20:23:23;7.97;;;4.25;;
36211;SDS011;22247;48.586;13.492;2023-08-07T20:25:48;2.13;;;1.52;;
36211;SDS011;22247;48.586;13.492;2023-08-07T20:28:15;1.98;;;1.13;;
36211;SDS011;22247;48.586;13.492;2023-08-07T20:30:40;5.68;;;1.38;;
36211;SDS011;22247;48.586;13.492;2023-08-07T20:35:32;5.35;;;1.73;;
36211;SDS011;22247;48.586;13.492;2023-08-07T20:37:59;2.03;;;1.30;;
36211;SDS011;22247;48.586;13.492;2023-08-07T20:40:23;2.55;;;1.40;;
36211;SDS011;22247;48.586;13.492;2023-08-07T20:42:48;4.38;;;1.50;;
36211;SDS011;22247;48.586;13.492;2023-08-07T20:45:15;6.82;;;1.40;;
36211;SDS011;22247;48.586;13.492;2023-08-07T20:47:44;8.70;;;1.65;;
36211;SDS011;22247;48.586;13.492;2023-08-07T20:50:09;5.88;;;1.33;;
36211;SDS011;22247;48.586;13.492;2023-08-07T20:54:59;2.55;;;1.10;;
36211;SDS011;22247;48.586;13.492;2023-08-07T20:59:51;2.70;;;1.05;;
36211;SDS011;22247;48.586;13.492;2023-08-07T21:02:17;4.80;;;1.00;;
36211;SDS011;22247;48.586;13.492;2023-08-07T21:04:42;3.95;;;1.00;;
36211;SDS011;22247;48.586;13.492;2023-08-07T21:07:07;2.25;;;1.05;;
36211;SDS011;22247;48.586;13.492;2023-08-07T21:09:32;2.97;;;0.93;;
36211;SDS011;22247;48.586;13.492;2023-08-07T21:14:22;3.08;;;0.93;;
36211;SDS011;22247;48.586;13.492;2023-08-07T21:16:46;6.35;;;1.05;;
36211;SDS011;22247;48.586;13.492;2023-08-07T21:19:11;3.08;;;1.40;;
36211;SDS011;22247;48.586;13.492;2023-08-07T21:24:00;2.55;;;1.02;;
36211;SDS011;22247;48.586;13.492;2023-08-07T21:26:25;1.67;;;1.20;;
36211;SDS011;22247;48.586;13.492;2023-08-07T21:28:49;3.78;;;1.20;;
36211;SDS011;22247;48.586;13.492;2023-08-07T21:31:18;8.63;;;1.88;;
36211;SDS011;22247;48.586;13.492;2023-08-07T21:33:45;5.25;;;2.08;;
36211;SDS011;22247;48.586;13.492;2023-08-07T21:36:13;3.75;;;1.70;;
36211;SDS011;22247;48.586;13.492;2023-08-07T21:38:37;3.50;;;1.90;;
36211;SDS011;22247;48.586;13.492;2023-08-07T21:41:04;3.53;;;1.60;;
36211;SDS011;22247;48.586;13.492;2023-08-07T21:43:29;10.18;;;2.08;;
36211;SDS011;22247;48.586;13.492;2023-08-07T21:45:56;8.50;;;2.25;;
36211;SDS011;22247;48.586;13.492;2023-08-07T21:48:20;8.05;;;3.15;;
36211;SDS011;22247;48.586;13.492;2023-08-07T21:50:45;5.43;;;2.72;;
36211;SDS011;22247;48.586;13.492;2023-08-07T21:53:12;7.57;;;1.95;;
36211;SDS011;22247;48.586;13.492;2023-08-07T21:55:39;6.15;;;2.40;;
36211;SDS011;22247;48.586;13.492;2023-08-07T21:58:06;11.85;;;2.78;;
36211;SDS011;22247;48.586;13.492;2023-08-07T22:00:31;7.97;;;2.47;;
36211;SDS011;22247;48.586;13.492;2023-08-07T22:02:55;7.47;;;2.47;;
36211;SDS011;22247;48.586;13.492;2023-08-07T22:05:20;10.15;;;3.42;;
36211;SDS011;22247;48.586;13.492;2023-08-07T22:10:13;5.18;;;2.15;;
36211;SDS011;22247;48.586;13.492;2023-08-07T22:12:40;3.83;;;1.77;;
36211;SDS011;22247;48.586;13.492;2023-08-07T22:15:05;24.40;;;2.13;;
36211;SDS011;22247;48.586;13.492;2023-08-07T22:17:32;7.75;;;2.50;;
36211;SDS011;22247;48.586;13.492;2023-08-07T22:19:56;7.28;;;1.52;;
36211;SDS011;22247;48.586;13.492;2023-08-07T22:22:21;6.93;;;2.15;;
36211;SDS011;22247;48.586;13.492;2023-08-07T22:24:48;9.00;;;2.13;;
36211;SDS011;22247;48.586;13.492;2023-08-07T22:27:13;4.53;;;2.03;;
36211;SDS011;22247;48.586;13.492;2023-08-07T22:29:37;6.18;;;1.17;;
36211;SDS011;22247;48.586;13.492;2023-08-07T22:32:02;2.85;;;1.00;;
36211;SDS011;22247;48.586;13.492;2023-08-07T22:34:27;3.25;;;1.27;;
36211;SDS011;22247;48.586;13.492;2023-08-07T22:39:17;2.75;;;1.00;;
36211;SDS011;22247;48.586;13.492;2023-08-07T22:41:44;5.25;;;1.15;;
36211;SDS011;22247;48.586;13.492;2023-08-07T22:44:08;11.05;;;1.40;;
36211;SDS011;22247;48.586;13.492;2023-08-07T22:46:35;4.03;;;0.95;;
36211;SDS011;22247;48.586;13.492;2023-08-07T22:49:00;4.05;;;1.45;;
36211;SDS011;22247;48.586;13.492;2023-08-07T22:51:24;2.33;;;1.40;;
36211;SDS011;22247;48.586;13.492;2023-08-07T22:53:51;2.17;;;1.33;;
36211;SDS011;22247;48.586;13.492;2023-08-07T22:56:18;6.95;;;1.60;;
36211;SDS011;22247;48.586;13.492;2023-08-07T22:58:43;5.55;;;1.80;;
36211;SDS011;22247;48.586;13.492;2023-08-07T23:01:08;9.15;;;1.50;;
36211;SDS011;22247;48.586;13.492;2023-08-07T23:03:35;3.83;;;1.48;;
36211;SDS011;22247;48.586;13.492;2023-08-07T23:06:02;2.35;;;1.40;;
36211;SDS011;22247;48.586;13.492;2023-08-07T23:08:26;2.65;;;1.40;;
36211;SDS011;22247;48.586;13.492;2023-08-07T23:10:51;2.83;;;1.50;;
36211;SDS011;22247;48.586;13.492;2023-08-07T23:13:19;2.90;;;1.40;;
36211;SDS011;22247;48.586;13.492;2023-08-07T23:15:43;2.95;;;1.45;;
36211;SDS011;22247;48.586;13.492;2023-08-07T23:18:11;3.40;;;1.50;;
36211;SDS011;22247;48.586;13.492;2023-08-07T23:20:36;7.28;;;1.35;;
36211;SDS011;22247;48.586;13.492;2023-08-07T23:23:00;8.68;;;1.88;;
36211;SDS011;22247;48.586;13.492;2023-08-07T23:25:25;5.28;;;1.40;;
36211;SDS011;22247;48.586;13.492;2023-08-07T23:27:49;3.28;;;1.60;;
36211;SDS011;22247;48.586;13.492;2023-08-07T23:30:14;2.55;;;1.40;;
36211;SDS011;22247;48.586;13.492;2023-08-07T23:32:41;11.60;;;1.50;;
36211;SDS011;22247;48.586;13.492;2023-08-07T23:35:06;1.95;;;1.35;;
36211;SDS011;22247;48.586;13.492;2023-08-07T23:39:56;4.63;;;1.60;;
36211;SDS011;22247;48.586;13.492;2023-08-07T23:42:20;2.83;;;1.33;;
36211;SDS011;22247;48.586;13.492;2023-08-07T23:47:09;3.45;;;1.38;;
36211;SDS011;22247;48.586;13.492;2023-08-07T23:51:59;2.95;;;1.40;;
36211;SDS011;22247;48.586;13.492;2023-08-07T23:54:26;2.75;;;1.70;;
36211;SDS011;22247;48.586;13.492;2023-08-07T23:56:50;2.70;;;1.65;;
36211;SDS011;22247;48.586;13.492;2023-08-07T23:59:17;11.45;;;1.50;;
